Time;durP1;ratioP1;P1;durP2;ratioP2;P2;SDS_P1;SDS_P2;PMS_P1;PMS_P2;Temp;Humidity;BMP_temperature;BMP_pressure;BME280_temperature;BME280_humidity;BME280_pressure;Samples;Min_cycle;Max_cycle;Signal;HPM_P1;HPM_P2
2021/03/26 00:01:14;;;;;;;1.50;0.20;;;10.30;99.90;;;;;;5089136;28;20473;-61
2021/03/26 00:03:41;;;;;;;1.60;0.50;;;10.30;99.90;;;;;;5092433;28;20437;-61
2021/03/26 00:06:11;;;;;;;1.53;0.20;;;10.20;99.90;;;;;;5087903;28;20801;-61
2021/03/26 00:08:36;;;;;;;1.50;0.20;;;10.20;99.90;;;;;;5089740;28;20483;-61
2021/03/26 00:11:03;;;;;;;1.60;0.20;;;10.20;99.90;;;;;;5092304;28;20462;-61
2021/03/26 00:13:29;;;;;;;2.13;1.00;;;10.30;99.90;;;;;;5083169;28;20191;-61
2021/03/26 00:15:55;;;;;;;1.70;0.60;;;10.20;99.90;;;;;;5087925;28;20467;-60
2021/03/26 00:18:20;;;;;;;4.20;2.53;;;10.20;99.90;;;;;;5091537;28;20259;-61
2021/03/26 00:20:46;;;;;;;1.53;0.20;;;10.20;99.90;;;;;;5088463;28;20207;-60
2021/03/26 00:23:11;;;;;;;1.50;0.20;;;10.20;99.90;;;;;;5090710;28;20235;-60
2021/03/26 00:25:37;;;;;;;1.57;0.20;;;10.20;99.90;;;;;;5090262;28;20188;-61
2021/03/26 00:28:05;;;;;;;4.10;1.33;;;10.20;99.90;;;;;;5089640;28;20183;-61
2021/03/26 00:30:31;;;;;;;1.57;0.20;;;10.10;99.90;;;;;;5097529;28;20430;-62
2021/03/26 00:32:57;;;;;;;1.57;0.20;;;10.00;99.90;;;;;;5097634;28;20436;-61
2021/03/26 00:35:24;;;;;;;2.00;0.70;;;10.00;99.90;;;;;;5095396;28;20465;-61
2021/03/26 00:37:50;;;;;;;1.50;0.20;;;10.00;99.90;;;;;;5094260;28;20192;-61
2021/03/26 00:40:17;;;;;;;1.53;0.20;;;10.00;99.90;;;;;;5092487;28;20480;-61
2021/03/26 00:42:43;;;;;;;1.57;0.20;;;9.90;99.90;;;;;;5088167;28;20192;-61
2021/03/26 00:45:11;;;;;;;1.80;0.90;;;10.00;99.90;;;;;;5094270;28;20438;-62
2021/03/26 00:47:37;;;;;;;1.80;0.60;;;10.00;99.90;;;;;;5088735;28;20445;-62
2021/03/26 00:50:08;;;;;;;1.87;0.60;;;9.90;99.90;;;;;;5092860;28;20784;-62
2021/03/26 00:52:33;;;;;;;1.60;0.30;;;9.80;99.90;;;;;;5091369;28;20294;-61
2021/03/26 00:54:59;;;;;;;2.67;1.53;;;9.80;99.90;;;;;;5090882;28;20465;-61
2021/03/26 00:57:24;;;;;;;1.90;0.57;;;9.80;99.90;;;;;;5093936;28;20198;-61
2021/03/26 00:59:50;;;;;;;1.50;0.20;;;9.80;99.90;;;;;;5096110;28;20255;-61
2021/03/26 01:02:15;;;;;;;1.50;0.20;;;9.70;99.90;;;;;;5089863;28;20289;-61
2021/03/26 01:04:41;;;;;;;2.30;1.20;;;9.70;99.90;;;;;;5093387;28;20188;-61
2021/03/26 01:07:07;;;;;;;1.57;0.20;;;9.70;99.90;;;;;;5095951;28;20196;-61
2021/03/26 01:09:32;;;;;;;2.10;0.90;;;9.60;99.90;;;;;;5074977;28;20187;-61
2021/03/26 01:11:58;;;;;;;3.27;1.57;;;9.60;99.90;;;;;;5094003;28;20208;-61
2021/03/26 01:14:23;;;;;;;6.53;2.97;;;9.60;99.90;;;;;;5094036;28;20184;-61
2021/03/26 01:16:49;;;;;;;2.53;0.63;;;9.60;99.90;;;;;;5087687;28;20228;-61
2021/03/26 01:19:15;;;;;;;2.10;0.73;;;9.60;99.90;;;;;;5094864;28;20179;-60
2021/03/26 01:21:41;;;;;;;1.57;0.20;;;9.60;99.90;;;;;;5093465;28;20204;-61
2021/03/26 01:24:11;;;;;;;1.70;0.40;;;9.60;99.90;;;;;;5092304;28;20449;-61
2021/03/26 01:26:37;;;;;;;1.70;0.50;;;9.60;99.90;;;;;;5094410;28;20446;-61
2021/03/26 01:29:03;;;;;;;1.50;0.20;;;9.60;99.90;;;;;;5093630;28;20446;-61
2021/03/26 01:31:29;;;;;;;2.70;0.83;;;9.50;99.90;;;;;;5088242;28;20230;-60
2021/03/26 01:33:55;;;;;;;3.00;1.30;;;9.50;99.90;;;;;;5090587;28;20448;-60
2021/03/26 01:36:20;;;;;;;6.80;3.07;;;9.50;99.90;;;;;;5091921;28;20469;-61
2021/03/26 01:38:46;;;;;;;1.50;0.20;;;9.50;99.90;;;;;;5091362;28;20192;-61
2021/03/26 01:41:31;;;;;;;2.00;0.60;;;9.60;99.90;;;;;;5094369;28;20214;-60
2021/03/26 01:43:56;;;;;;;10.43;0.83;;;9.60;99.90;;;;;;5088239;28;20247;-60
2021/03/26 01:46:23;;;;;;;1.93;0.73;;;9.60;99.90;;;;;;5088785;28;20439;-60
2021/03/26 01:49:00;;;;;;;2.10;0.40;;;9.60;99.90;;;;;;5085516;28;20272;-59
2021/03/26 01:51:29;;;;;;;1.90;1.17;;;9.60;99.90;;;;;;5088251;28;21067;-61
2021/03/26 01:53:55;;;;;;;1.80;0.73;;;9.60;99.90;;;;;;5091109;28;20442;-61
2021/03/26 01:56:21;;;;;;;1.97;0.80;;;9.70;99.90;;;;;;5094771;28;20481;-60
2021/03/26 01:58:46;;;;;;;1.57;0.20;;;9.70;99.90;;;;;;5092441;28;20989;-60
2021/03/26 02:01:37;;;;;;;1.60;0.20;;;9.70;99.90;;;;;;5088934;28;20265;-60
2021/03/26 02:04:05;;;;;;;1.70;0.50;;;9.60;99.90;;;;;;5092562;28;20206;-60
2021/03/26 02:06:39;;;;;;;2.47;1.90;;;9.60;99.90;;;;;;5086727;28;20432;-60
2021/03/26 02:09:10;;;;;;;3.07;1.50;;;9.70;99.90;;;;;;5091115;28;20467;-60
2021/03/26 02:11:56;;;;;;;1.50;0.20;;;9.70;99.90;;;;;;5090916;28;20890;-61
2021/03/26 02:14:26;;;;;;;1.53;0.20;;;9.70;99.90;;;;;;5089202;28;20445;-60
2021/03/26 02:16:53;;;;;;;3.00;2.10;;;9.80;99.90;;;;;;5090451;28;20469;-60
2021/03/26 02:20:00;;;;;;;4.00;1.73;;;9.80;99.90;;;;;;5097215;28;20445;-60
2021/03/26 02:22:30;;;;;;;7.63;3.77;;;9.80;99.90;;;;;;4990842;28;20469;-60
2021/03/26 02:24:57;;;;;;;8.93;4.30;;;9.70;99.90;;;;;;4996681;28;20441;-61
2021/03/26 02:27:29;;;;;;;2.17;1.50;;;9.70;99.90;;;;;;5055695;28;21030;-59
2021/03/26 02:29:55;;;;;;;1.57;0.20;;;9.70;99.90;;;;;;5095904;28;20834;-62
2021/03/26 02:32:34;;;;;;;1.50;0.20;;;9.80;99.90;;;;;;5092833;28;20461;-60
2021/03/26 02:35:07;;;;;;;2.43;0.40;;;9.80;99.90;;;;;;5090720;28;20482;-62
2021/03/26 02:37:33;;;;;;;1.70;0.50;;;9.80;99.90;;;;;;5087475;28;20442;-61
2021/03/26 02:39:59;;;;;;;1.50;0.20;;;9.80;99.90;;;;;;5092128;28;20948;-61
2021/03/26 02:42:30;;;;;;;5.73;3.23;;;9.90;99.90;;;;;;5095755;28;20643;-60
2021/03/26 02:45:00;;;;;;;1.60;0.30;;;9.90;99.90;;;;;;5096094;28;20438;-60
2021/03/26 02:47:36;;;;;;;1.50;0.20;;;9.80;99.90;;;;;;5093116;28;20437;-60
2021/03/26 02:50:08;;;;;;;1.70;0.50;;;9.80;99.90;;;;;;5093177;28;20521;-60
2021/03/26 02:53:12;;;;;;;3.30;1.63;;;9.80;99.90;;;;;;5089055;28;20951;-60
2021/03/26 02:55:52;;;;;;;2.17;0.60;;;9.80;99.90;;;;;;5084891;28;20473;-60
2021/03/26 02:58:29;;;;;;;1.90;1.03;;;9.80;99.90;;;;;;5088274;28;20563;-60
2021/03/26 03:01:15;;;;;;;1.90;0.97;;;9.80;99.90;;;;;;5093380;28;20467;-59
2021/03/26 03:03:44;;;;;;;5.10;2.93;;;9.80;99.90;;;;;;5099619;28;20449;-61
2021/03/26 03:06:17;;;;;;;1.50;0.20;;;9.80;99.90;;;;;;5092340;28;20788;-60
2021/03/26 03:08:44;;;;;;;1.53;0.20;;;9.80;99.90;;;;;;5088437;28;20513;-60
2021/03/26 03:11:28;;;;;;;2.47;1.50;;;9.80;99.90;;;;;;5088526;28;20944;-64
2021/03/26 03:14:07;;;;;;;1.60;0.30;;;9.80;99.90;;;;;;5089747;28;20446;-60
2021/03/26 03:16:42;;;;;;;1.57;0.20;;;9.80;99.90;;;;;;5090515;28;20472;-60
2021/03/26 03:19:13;;;;;;;1.50;0.20;;;9.80;99.90;;;;;;5094256;28;20547;-60
2021/03/26 03:21:49;;;;;;;9.37;8.50;;;9.90;99.90;;;;;;5093844;28;20994;-60
2021/03/26 03:24:21;;;;;;;1.53;0.20;;;9.90;99.90;;;;;;5089624;28;20457;-60
2021/03/26 03:26:53;;;;;;;2.77;1.07;;;9.80;99.90;;;;;;5090447;28;20433;-62
2021/03/26 03:29:40;;;;;;;7.40;3.40;;;9.90;99.90;;;;;;5089117;28;20423;-60
2021/03/26 03:32:37;;;;;;;1.53;0.20;;;9.90;99.90;;;;;;5090929;28;20980;-60
2021/03/26 03:35:13;;;;;;;4.80;2.13;;;9.90;99.90;;;;;;5092308;28;20446;-61
2021/03/26 03:38:21;;;;;;;2.97;0.47;;;9.90;99.90;;;;;;5090218;28;20435;-60
2021/03/26 03:40:57;;;;;;;1.50;0.20;;;9.90;99.90;;;;;;5066265;28;20457;-60
2021/03/26 03:43:39;;;;;;;4.73;3.60;;;9.90;99.90;;;;;;5093357;28;20464;-60
2021/03/26 03:46:07;;;;;;;2.37;1.33;;;9.90;99.90;;;;;;5074748;28;20503;-60
2021/03/26 03:48:44;;;;;;;1.50;0.20;;;9.90;99.90;;;;;;5091800;28;20820;-60
2021/03/26 03:51:17;;;;;;;1.60;0.30;;;9.90;99.90;;;;;;5089959;28;20457;-61
2021/03/26 03:54:03;;;;;;;5.00;2.10;;;9.90;99.90;;;;;;5094515;28;20438;-60
2021/03/26 03:56:37;;;;;;;1.60;0.50;;;9.90;99.90;;;;;;5087834;28;20460;-60
2021/03/26 03:59:08;;;;;;;1.90;0.80;;;9.90;99.90;;;;;;5090859;28;20434;-60
2021/03/26 04:01:47;;;;;;;1.50;0.20;;;9.90;99.90;;;;;;5096170;28;20534;-60
2021/03/26 04:04:31;;;;;;;9.03;3.20;;;9.90;99.90;;;;;;5092868;28;20434;-60
2021/03/26 04:07:04;;;;;;;1.60;0.40;;;9.90;99.90;;;;;;5093760;28;20780;-61
2021/03/26 04:09:37;;;;;;;1.53;0.20;;;9.90;99.90;;;;;;5096672;28;20422;-59
2021/03/26 04:12:25;;;;;;;1.50;0.20;;;9.80;99.90;;;;;;5098393;28;20994;-59
2021/03/26 04:15:15;;;;;;;3.63;1.23;;;9.80;99.90;;;;;;5097319;28;20441;-61
2021/03/26 04:17:51;;;;;;;3.40;2.00;;;9.70;99.90;;;;;;5095676;28;20430;-60
2021/03/26 04:20:30;;;;;;;6.40;2.73;;;9.70;99.90;;;;;;5092167;28;20521;-60
2021/03/26 04:23:17;;;;;;;1.57;0.20;;;9.60;99.90;;;;;;5096269;28;20441;-60
2021/03/26 04:25:55;;;;;;;1.50;0.20;;;9.60;99.90;;;;;;5095770;28;20446;-60
2021/03/26 04:28:28;;;;;;;1.60;0.20;;;9.60;99.90;;;;;;5093075;28;20785;-60
2021/03/26 04:30:57;;;;;;;1.50;0.20;;;9.60;99.90;;;;;;5097092;28;20453;-60
2021/03/26 04:33:23;;;;;;;1.83;1.00;;;9.60;99.90;;;;;;5088252;28;20429;-61
2021/03/26 04:35:51;;;;;;;1.53;0.20;;;9.60;99.90;;;;;;5093420;28;20560;-60
2021/03/26 04:38:27;;;;;;;1.93;0.67;;;9.60;99.90;;;;;;5089973;28;20429;-61
2021/03/26 04:41:01;;;;;;;1.53;0.20;;;9.60;99.90;;;;;;5094932;28;20453;-60
2021/03/26 04:43:45;;;;;;;1.50;0.20;;;9.60;99.90;;;;;;5092361;28;20431;-61
2021/03/26 04:46:29;;;;;;;1.60;0.20;;;9.60;99.90;;;;;;5096236;28;20449;-60
2021/03/26 04:49:20;;;;;;;1.80;0.43;;;9.70;99.90;;;;;;5095727;28;20437;-60
2021/03/26 04:51:55;;;;;;;1.50;0.20;;;9.70;99.90;;;;;;5094725;28;20454;-60
2021/03/26 04:54:34;;;;;;;57.23;26.00;;;9.70;99.90;;;;;;5091548;28;20437;-60
2021/03/26 04:57:07;;;;;;;1.80;0.60;;;9.70;99.90;;;;;;5094201;28;20453;-60
2021/03/26 04:59:59;;;;;;;1.50;0.20;;;9.60;99.90;;;;;;5089063;28;20431;-61
2021/03/26 05:02:25;;;;;;;1.77;0.73;;;9.60;99.90;;;;;;5093788;28;20463;-61
2021/03/26 05:04:55;;;;;;;1.50;0.20;;;9.60;99.90;;;;;;5096689;28;20445;-61
2021/03/26 05:07:27;;;;;;;1.50;0.20;;;9.60;99.90;;;;;;5093572;28;20422;-61
2021/03/26 05:09:57;;;;;;;1.80;1.07;;;9.60;99.90;;;;;;5092011;28;20473;-61
2021/03/26 05:12:27;;;;;;;24.70;2.83;;;9.60;99.90;;;;;;5087731;28;20457;-61
2021/03/26 05:15:06;;;;;;;1.50;0.20;;;9.60;99.90;;;;;;5094657;28;20446;-61
2021/03/26 05:17:43;;;;;;;6.43;3.40;;;9.60;99.90;;;;;;5094073;28;20442;-61
2021/03/26 05:20:30;;;;;;;1.53;0.20;;;9.60;99.90;;;;;;5096621;28;20538;-61
2021/03/26 05:22:59;;;;;;;1.53;0.20;;;9.60;99.90;;;;;;5096086;28;20433;-61
2021/03/26 05:25:41;;;;;;;1.57;0.20;;;9.50;99.90;;;;;;5093883;28;20438;-61
2021/03/26 05:28:11;;;;;;;1.53;0.20;;;9.50;99.90;;;;;;5097039;28;20523;-63
2021/03/26 05:30:40;;;;;;;1.60;0.30;;;9.60;99.90;;;;;;5094119;28;20504;-60
2021/03/26 05:33:31;;;;;;;1.50;0.20;;;9.60;99.90;;;;;;5098587;28;20778;-60
2021/03/26 05:36:21;;;;;;;1.87;0.70;;;9.60;99.90;;;;;;5093642;28;20467;-60
2021/03/26 05:38:52;;;;;;;7.83;3.63;;;9.60;99.90;;;;;;5095419;28;20445;-60
2021/03/26 05:41:39;;;;;;;2.43;0.80;;;9.60;99.90;;;;;;5093755;28;20809;-60
2021/03/26 05:44:32;;;;;;;1.57;0.20;;;9.60;99.90;;;;;;5092914;28;20457;-60
2021/03/26 05:47:21;;;;;;;1.57;0.20;;;9.60;99.90;;;;;;5090597;28;20461;-59
2021/03/26 05:50:01;;;;;;;15.00;5.17;;;9.60;99.90;;;;;;5093336;28;20489;-61
2021/03/26 05:52:37;;;;;;;1.60;0.40;;;9.50;99.90;;;;;;5099182;28;20464;-60
2021/03/26 05:55:27;;;;;;;1.53;0.20;;;9.50;99.90;;;;;;5104955;28;20429;-61
2021/03/26 05:58:32;;;;;;;1.77;0.60;;;9.60;99.90;;;;;;5103355;28;20441;-61
2021/03/26 06:01:22;;;;;;;1.90;0.40;;;9.60;99.90;;;;;;5053277;28;20477;-62
2021/03/26 06:03:57;;;;;;;1.53;0.20;;;9.60;99.90;;;;;;5107023;28;20434;-60
2021/03/26 06:06:42;;;;;;;1.70;0.60;;;9.60;99.90;;;;;;5102764;28;20440;-61
2021/03/26 06:09:38;;;;;;;1.50;0.20;;;9.60;99.90;;;;;;5093573;28;20461;-61
2021/03/26 06:12:19;;;;;;;1.50;0.20;;;9.70;99.90;;;;;;5093753;28;20458;-61
2021/03/26 06:15:03;;;;;;;1.60;0.30;;;9.70;99.90;;;;;;5092573;28;21254;-62
2021/03/26 06:17:54;;;;;;;3.13;1.13;;;9.70;99.90;;;;;;5091687;28;20437;-61
2021/03/26 06:20:47;;;;;;;2.97;2.00;;;9.80;99.90;;;;;;5086181;28;20444;-59
2021/03/26 06:23:46;;;;;;;5.77;2.30;;;9.80;99.90;;;;;;5101734;28;20426;-59
2021/03/26 06:26:37;;;;;;;1.90;0.83;;;9.80;99.90;;;;;;5103868;28;20422;-62
2021/03/26 06:29:15;;;;;;;1.60;0.40;;;9.90;99.90;;;;;;5100246;28;20536;-60
2021/03/26 06:32:00;;;;;;;5.53;3.70;;;10.00;99.90;;;;;;5089368;28;20495;-60
2021/03/26 06:34:55;;;;;;;1.50;0.20;;;9.90;99.90;;;;;;5091789;28;20433;-60
2021/03/26 06:37:59;;;;;;;1.80;0.67;;;10.00;99.90;;;;;;5093946;28;20473;-60
2021/03/26 06:40:50;;;;;;;1.57;0.20;;;10.10;99.90;;;;;;5089786;28;20444;-60
2021/03/26 06:43:49;;;;;;;4.07;2.53;;;10.10;99.90;;;;;;5099157;28;20517;-60
2021/03/26 06:47:06;;;;;;;1.50;0.20;;;10.20;99.90;;;;;;5091181;28;20434;-60
2021/03/26 06:49:49;;;;;;;6.13;1.40;;;10.20;99.90;;;;;;5040861;28;20448;-60
2021/03/26 06:52:53;;;;;;;3.53;3.23;;;10.20;99.90;;;;;;5086590;28;20480;-60
2021/03/26 06:55:52;;;;;;;1.93;0.70;;;10.20;99.90;;;;;;5089010;28;20439;-60
2021/03/26 06:58:53;;;;;;;9.60;2.77;;;10.20;99.90;;;;;;5089022;28;20444;-60
2021/03/26 07:01:41;;;;;;;1.60;0.27;;;10.20;99.90;;;;;;5089267;28;20897;-60
2021/03/26 07:04:41;;;;;;;11.43;2.70;;;10.20;99.90;;;;;;5087864;28;20510;-60
2021/03/26 07:07:31;;;;;;;3.10;2.10;;;10.20;99.90;;;;;;5087332;28;20445;-60
2021/03/26 07:10:15;;;;;;;1.50;0.20;;;10.20;99.90;;;;;;5093415;28;20437;-58
2021/03/26 07:13:00;;;;;;;1.50;0.20;;;10.20;99.90;;;;;;5089223;28;20485;-59
2021/03/26 07:15:52;;;;;;;2.97;1.17;;;10.10;99.90;;;;;;5086701;28;20465;-59
2021/03/26 07:18:47;;;;;;;1.90;1.43;;;10.10;99.90;;;;;;5088221;28;20480;-61
2021/03/26 07:21:44;;;;;;;2.10;1.33;;;10.20;99.90;;;;;;5058370;28;20511;-61
2021/03/26 07:24:58;;;;;;;1.60;0.20;;;10.20;99.90;;;;;;5096120;28;20468;-61
2021/03/26 07:27:43;;;;;;;1.53;0.20;;;10.20;99.90;;;;;;5028697;28;20983;-63
2021/03/26 07:30:35;;;;;;;2.80;1.63;;;10.30;99.90;;;;;;5031437;28;20451;-60
2021/03/26 07:33:15;;;;;;;2.00;1.00;;;10.40;99.90;;;;;;5084009;28;20450;-60
2021/03/26 07:36:07;;;;;;;1.60;0.20;;;10.40;99.90;;;;;;5102203;28;20477;-59
2021/03/26 07:39:04;;;;;;;3.73;2.23;;;10.50;99.90;;;;;;5073877;28;20438;-61
2021/03/26 07:41:50;;;;;;;1.60;0.20;;;10.60;99.90;;;;;;5096261;28;20544;-60
2021/03/26 07:44:52;;;;;;;1.60;0.20;;;10.70;99.90;;;;;;5093784;28;20441;-61
2021/03/26 07:47:48;;;;;;;1.57;0.20;;;10.80;99.90;;;;;;5095176;28;20445;-61
2021/03/26 07:50:35;;;;;;;1.60;0.53;;;10.80;99.90;;;;;;5097518;28;20871;-60
2021/03/26 07:53:13;;;;;;;1.53;0.20;;;11.00;99.90;;;;;;5098695;28;20445;-61
2021/03/26 07:55:51;;;;;;;1.77;0.67;;;11.10;99.90;;;;;;5097846;28;20529;-60
2021/03/26 07:58:35;;;;;;;4.07;1.70;;;11.10;99.90;;;;;;5088886;28;20457;-61
2021/03/26 08:01:28;;;;;;;1.60;0.30;;;11.20;99.90;;;;;;5095861;28;20495;-60
2021/03/26 08:03:59;;;;;;;4.80;3.00;;;11.20;99.90;;;;;;5094509;28;20442;-60
2021/03/26 08:06:40;;;;;;;1.53;0.20;;;11.30;99.90;;;;;;5088816;28;20528;-60
2021/03/26 08:09:32;;;;;;;7.37;3.77;;;11.30;99.90;;;;;;5094879;28;20931;-60
2021/03/26 08:12:23;;;;;;;1.70;0.60;;;11.40;99.90;;;;;;5090362;28;20503;-60
2021/03/26 08:15:10;;;;;;;2.90;1.43;;;11.40;99.90;;;;;;5092949;28;20944;-59
2021/03/26 08:18:06;;;;;;;4.80;2.90;;;11.50;99.90;;;;;;5094155;28;20456;-60
2021/03/26 08:21:09;;;;;;;3.17;1.23;;;11.50;99.90;;;;;;5096015;28;20562;-60
2021/03/26 08:23:43;;;;;;;3.97;2.63;;;11.50;99.90;;;;;;5077562;28;20803;-60
2021/03/26 08:26:17;;;;;;;1.70;0.70;;;11.60;99.90;;;;;;5092837;28;20441;-60
2021/03/26 08:28:43;;;;;;;8.80;6.13;;;11.70;99.90;;;;;;5087346;28;21035;-60
2021/03/26 08:31:54;;;;;;;1.57;0.20;;;11.70;99.90;;;;;;5092328;28;20510;-60
2021/03/26 08:34:44;;;;;;;1.50;0.20;;;11.80;99.90;;;;;;5092447;28;20575;-60
2021/03/26 08:37:34;;;;;;;5.23;3.07;;;11.80;99.90;;;;;;5090045;28;20458;-61
2021/03/26 08:40:03;;;;;;;7.20;4.07;;;11.90;99.90;;;;;;5093872;28;20434;-60
2021/03/26 08:42:36;;;;;;;1.60;0.20;;;12.00;99.90;;;;;;5092459;28;20454;-61
2021/03/26 08:45:07;;;;;;;3.83;1.00;;;12.00;99.90;;;;;;5092710;28;20452;-60
2021/03/26 08:47:38;;;;;;;8.90;6.07;;;12.10;99.90;;;;;;5098717;28;20437;-61
2021/03/26 08:50:25;;;;;;;10.13;7.20;;;12.10;99.90;;;;;;5098136;28;20448;-61
2021/03/26 08:53:12;;;;;;;3.53;1.07;;;12.20;99.90;;;;;;5089760;28;20450;-61
2021/03/26 08:55:45;;;;;;;2.43;1.13;;;12.10;99.90;;;;;;5089476;28;20488;-60
2021/03/26 08:58:30;;;;;;;10.27;4.30;;;12.10;99.90;;;;;;5098096;28;20442;-61
2021/03/26 09:01:45;;;;;;;7.83;5.13;;;12.10;99.90;;;;;;5088906;28;20569;-61
2021/03/26 09:04:48;;;;;;;1.63;0.40;;;12.10;99.90;;;;;;5040058;28;20445;-62
2021/03/26 09:07:44;;;;;;;3.13;2.30;;;12.10;99.90;;;;;;5072552;28;20976;-61
2021/03/26 09:10:29;;;;;;;2.77;1.80;;;12.10;99.90;;;;;;5072735;28;20908;-61
2021/03/26 09:13:13;;;;;;;1.80;0.70;;;12.20;99.90;;;;;;5094435;28;20463;-61
2021/03/26 09:15:57;;;;;;;1.70;0.83;;;12.20;99.90;;;;;;5091571;28;20465;-60
2021/03/26 09:18:32;;;;;;;1.57;0.20;;;12.20;99.90;;;;;;5084256;28;20433;-61
2021/03/26 09:21:12;;;;;;;9.80;5.00;;;12.30;99.90;;;;;;5092047;28;20489;-61
2021/03/26 09:24:17;;;;;;;1.53;0.20;;;12.50;99.90;;;;;;5092837;28;20457;-61
2021/03/26 09:27:03;;;;;;;1.60;0.20;;;12.60;99.90;;;;;;5085639;28;20583;-61
2021/03/26 09:29:53;;;;;;;1.50;0.20;;;12.60;99.90;;;;;;5085023;28;20461;-61
2021/03/26 09:32:27;;;;;;;3.17;2.10;;;12.80;99.90;;;;;;5090111;28;20457;-65
2021/03/26 09:35:09;;;;;;;4.17;1.97;;;12.90;99.90;;;;;;5089834;28;20438;-61
2021/03/26 09:37:38;;;;;;;1.50;0.20;;;12.90;99.90;;;;;;5088766;28;20449;-61
2021/03/26 09:40:24;;;;;;;1.50;0.20;;;12.90;99.90;;;;;;5091097;28;20430;-61
2021/03/26 09:43:10;;;;;;;5.47;4.17;;;12.80;99.90;;;;;;5089883;28;20473;-62
2021/03/26 09:45:46;;;;;;;2.10;1.30;;;12.80;99.90;;;;;;5088139;28;20495;-62
2021/03/26 09:48:36;;;;;;;3.20;2.47;;;12.80;99.90;;;;;;5088453;28;20449;-61
2021/03/26 09:51:28;;;;;;;11.60;7.83;;;12.80;99.90;;;;;;5090617;28;20464;-60
2021/03/26 09:54:03;;;;;;;10.63;4.30;;;12.80;99.90;;;;;;5080862;28;20470;-60
2021/03/26 09:56:36;;;;;;;8.87;7.07;;;12.90;99.90;;;;;;5090199;28;20473;-61
2021/03/26 09:59:40;;;;;;;1.60;0.30;;;12.90;99.90;;;;;;5091132;28;20800;-60
2021/03/26 10:02:09;;;;;;;1.60;0.50;;;13.00;99.90;;;;;;5047653;28;20465;-61
2021/03/26 10:04:51;;;;;;;5.20;3.13;;;13.00;99.90;;;;;;5090155;28;20430;-60
2021/03/26 10:07:44;;;;;;;2.20;0.70;;;13.10;99.90;;;;;;5085432;28;20785;-60
2021/03/26 10:12:57;;;;;;;2.33;1.80;;;13.10;99.90;;;;;;5087431;28;20465;-60
2021/03/26 10:15:55;;;;;;;2.33;1.33;;;13.20;99.90;;;;;;5087584;28;20444;-60
2021/03/26 10:18:24;;;;;;;1.60;0.20;;;13.20;99.90;;;;;;5078696;28;20467;-60
2021/03/26 10:21:12;;;;;;;1.53;0.30;;;13.20;99.90;;;;;;5086949;28;20915;-60
2021/03/26 10:24:08;;;;;;;1.60;0.50;;;13.30;99.90;;;;;;5091606;28;20781;-61
2021/03/26 10:27:05;;;;;;;1.70;0.53;;;13.40;99.90;;;;;;5085186;28;20435;-61
2021/03/26 10:30:07;;;;;;;1.57;0.20;;;13.40;99.90;;;;;;5091310;28;20449;-60
2021/03/26 10:32:34;;;;;;;1.50;0.20;;;13.50;99.40;;;;;;5087719;28;20457;-61
2021/03/26 10:35:21;;;;;;;8.97;4.27;;;13.50;99.20;;;;;;5087019;28;20449;-60
2021/03/26 10:38:04;;;;;;;1.53;0.20;;;13.70;99.10;;;;;;5086003;28;20520;-61
2021/03/26 10:40:30;;;;;;;6.43;2.27;;;13.80;98.30;;;;;;5088347;28;20479;-63
2021/03/26 10:43:20;;;;;;;7.53;4.33;;;13.90;97.00;;;;;;5085849;28;20438;-60
2021/03/26 10:46:00;;;;;;;7.10;5.17;;;13.80;96.70;;;;;;5087613;28;20183;-62
2021/03/26 10:48:45;;;;;;;1.50;0.20;;;13.80;96.90;;;;;;5089602;28;20443;-61
2021/03/26 10:51:39;;;;;;;2.57;1.03;;;13.90;96.40;;;;;;5092021;28;20501;-61
2021/03/26 10:54:26;;;;;;;2.77;2.47;;;13.90;94.90;;;;;;5075024;28;20527;-60
2021/03/26 10:57:03;;;;;;;2.97;1.70;;;14.00;93.80;;;;;;5086331;28;20469;-61
2021/03/26 10:59:39;;;;;;;1.50;0.30;;;14.00;92.40;;;;;;5083230;28;20433;-61
2021/03/26 11:02:54;;;;;;;1.50;0.20;;;13.90;92.70;;;;;;5088117;28;21008;-61
2021/03/26 11:05:33;;;;;;;1.87;0.40;;;14.00;93.40;;;;;;5080789;28;20465;-61
2021/03/26 11:07:59;;;;;;;1.50;0.20;;;14.10;94.60;;;;;;5082598;28;20798;-60
2021/03/26 11:10:39;;;;;;;1.50;0.20;;;14.10;92.00;;;;;;5090648;28;20440;-60
2021/03/26 11:13:29;;;;;;;1.90;0.93;;;14.10;90.70;;;;;;5085338;28;20187;-60
2021/03/26 11:16:02;;;;;;;1.50;0.20;;;14.20;91.30;;;;;;5087635;28;20547;-60
2021/03/26 11:18:37;;;;;;;1.60;0.40;;;14.30;91.70;;;;;;5084651;28;20445;-60
2021/03/26 11:21:10;;;;;;;2.10;0.90;;;14.30;91.90;;;;;;5095554;28;20951;-60
2021/03/26 11:23:41;;;;;;;1.97;0.70;;;14.40;91.30;;;;;;5084444;28;20435;-61
2021/03/26 11:26:29;;;;;;;1.50;0.20;;;14.40;90.50;;;;;;5086425;28;20442;-61
2021/03/26 11:28:55;;;;;;;4.63;2.97;;;14.50;90.70;;;;;;5088308;28;20442;-61
2021/03/26 11:31:37;;;;;;;5.07;1.50;;;14.40;90.70;;;;;;5090621;28;20975;-61
2021/03/26 11:34:38;;;;;;;7.70;3.50;;;14.50;91.10;;;;;;5090490;28;20207;-62
2021/03/26 11:37:17;;;;;;;7.33;4.90;;;14.60;90.80;;;;;;5076779;28;20521;-60
2021/03/26 11:39:50;;;;;;;1.57;0.20;;;14.60;90.50;;;;;;5089831;28;20425;-60
2021/03/26 11:42:16;;;;;;;1.67;0.47;;;14.60;91.20;;;;;;5090205;28;20453;-60
2021/03/26 11:45:02;;;;;;;1.53;0.20;;;14.80;91.10;;;;;;5089457;28;20994;-60
2021/03/26 11:47:28;;;;;;;1.70;0.43;;;14.80;90.70;;;;;;5088156;28;20182;-60
2021/03/26 11:50:13;;;;;;;1.50;0.20;;;14.70;91.00;;;;;;5088200;28;20442;-60
2021/03/26 11:52:44;;;;;;;5.63;1.50;;;14.60;91.30;;;;;;5088377;28;20200;-60
2021/03/26 11:55:21;;;;;;;1.70;0.50;;;14.50;91.50;;;;;;5091024;28;20452;-60
2021/03/26 11:58:04;;;;;;;1.50;0.20;;;14.50;91.90;;;;;;5086832;28;20789;-60
2021/03/26 12:00:33;;;;;;;2.10;0.93;;;14.60;92.30;;;;;;5085925;28;20439;-60
2021/03/26 12:03:23;;;;;;;3.63;2.10;;;14.70;91.90;;;;;;5088922;28;20442;-60
2021/03/26 12:06:22;;;;;;;1.50;0.20;;;14.70;91.40;;;;;;5090925;28;20771;-60
2021/03/26 12:08:57;;;;;;;1.50;0.20;;;14.80;90.60;;;;;;5089094;28;20441;-61
2021/03/26 12:11:31;;;;;;;3.10;2.00;;;14.80;91.10;;;;;;5088467;28;20465;-60
2021/03/26 12:14:38;;;;;;;2.60;1.27;;;14.80;90.60;;;;;;5088672;28;20433;-61
2021/03/26 12:17:53;;;;;;;1.50;0.20;;;14.90;90.80;;;;;;5055443;28;20465;-60
2021/03/26 12:20:31;;;;;;;1.50;0.20;;;15.00;90.90;;;;;;5076816;28;20453;-59
2021/03/26 12:22:59;;;;;;;1.90;0.70;;;15.20;90.50;;;;;;5091610;28;20442;-59
2021/03/26 12:25:27;;;;;;;1.50;0.20;;;15.40;90.10;;;;;;5093190;28;20443;-60
2021/03/26 12:27:55;;;;;;;1.50;0.20;;;15.40;90.00;;;;;;5090956;28;20445;-60
2021/03/26 12:30:35;;;;;;;1.50;0.20;;;15.30;89.40;;;;;;5095504;28;20479;-60
2021/03/26 12:33:13;;;;;;;5.73;3.93;;;15.40;90.00;;;;;;5095131;28;20485;-60
2021/03/26 12:35:50;;;;;;;1.50;0.20;;;15.50;87.40;;;;;;5096927;28;20490;-60
2021/03/26 12:38:42;;;;;;;2.80;1.43;;;15.50;86.90;;;;;;5087493;28;20479;-59
2021/03/26 12:41:41;;;;;;;1.50;0.20;;;15.70;87.10;;;;;;5092228;28;20509;-59
2021/03/26 12:44:16;;;;;;;1.53;0.20;;;15.80;87.00;;;;;;5075588;28;20450;-60
2021/03/26 12:47:09;;;;;;;1.60;0.20;;;15.70;86.50;;;;;;5092104;28;20438;-60
2021/03/26 12:49:57;;;;;;;1.50;0.20;;;15.80;86.10;;;;;;5089136;28;20505;-60
2021/03/26 12:52:48;;;;;;;1.57;0.20;;;15.70;86.30;;;;;;5093206;28;20468;-60
2021/03/26 12:55:29;;;;;;;4.53;2.10;;;15.70;88.30;;;;;;5090380;28;20431;-60
2021/03/26 12:58:15;;;;;;;1.50;0.20;;;15.70;86.40;;;;;;5090124;28;20451;-60
2021/03/26 13:00:40;;;;;;;3.83;1.40;;;15.80;86.50;;;;;;5088736;28;20791;-61
2021/03/26 13:03:22;;;;;;;4.43;3.13;;;15.90;84.80;;;;;;5092259;28;20440;-59
2021/03/26 13:06:13;;;;;;;3.10;2.13;;;15.90;83.50;;;;;;5089310;28;20204;-59
2021/03/26 13:08:46;;;;;;;1.50;0.20;;;15.90;83.40;;;;;;5087325;28;20505;-60
2021/03/26 13:11:30;;;;;;;1.50;0.20;;;15.90;82.10;;;;;;5092808;28;20803;-60
2021/03/26 13:14:15;;;;;;;2.77;1.27;;;15.90;82.00;;;;;;5089263;28;20527;-60
2021/03/26 13:16:42;;;;;;;3.07;2.07;;;15.80;82.70;;;;;;5088621;28;20462;-60
2021/03/26 13:19:36;;;;;;;4.33;2.83;;;15.70;82.90;;;;;;5092832;28;20471;-61
2021/03/26 13:22:31;;;;;;;1.60;0.20;;;15.70;82.80;;;;;;5069258;28;20463;-60
2021/03/26 13:24:57;;;;;;;1.50;0.30;;;15.80;83.40;;;;;;5087315;28;20999;-60
2021/03/26 13:27:32;;;;;;;3.30;1.60;;;15.70;84.20;;;;;;5089611;28;20466;-61
2021/03/26 13:30:20;;;;;;;5.50;2.47;;;15.70;83.80;;;;;;5091036;28;20195;-61
2021/03/26 13:33:12;;;;;;;1.70;0.57;;;15.80;82.90;;;;;;5090733;28;20800;-61
2021/03/26 13:36:06;;;;;;;1.50;0.20;;;15.90;81.70;;;;;;5089813;28;20474;-60
2021/03/26 13:38:36;;;;;;;3.33;1.57;;;16.00;79.70;;;;;;5084920;28;20444;-60
2021/03/26 13:41:19;;;;;;;1.50;0.30;;;16.20;79.00;;;;;;5098507;28;20446;-62
2021/03/26 13:44:23;;;;;;;1.90;0.70;;;16.30;79.90;;;;;;5095666;28;20467;-60
2021/03/26 13:46:51;;;;;;;1.50;0.20;;;16.30;77.10;;;;;;5092754;28;20450;-60
2021/03/26 13:49:24;;;;;;;1.50;0.20;;;16.50;77.40;;;;;;5088491;28;20917;-59
2021/03/26 13:51:54;;;;;;;1.80;0.57;;;16.50;76.20;;;;;;5089730;28;20503;-59
2021/03/26 13:54:44;;;;;;;1.50;0.20;;;16.60;76.60;;;;;;5089310;28;20456;-60
2021/03/26 13:57:28;;;;;;;2.93;2.73;;;16.60;77.90;;;;;;5087408;28;20538;-60
2021/03/26 14:00:04;;;;;;;1.50;0.20;;;16.60;75.90;;;;;;5082033;28;20445;-60